sensor_id;sensor_type;location;lat;lon;timestamp;temperature;humidity
22781;DHT22;11557;50.884;4.322;2023-07-16T00:00:27;20.50;99.90
22781;DHT22;11557;50.884;4.322;2023-07-16T00:02:53;20.50;99.90
22781;DHT22;11557;50.884;4.322;2023-07-16T00:05:18;20.50;99.90
22781;DHT22;11557;50.884;4.322;2023-07-16T00:07:44;20.40;99.90
22781;DHT22;11557;50.884;4.322;2023-07-16T00:10:10;20.40;99.90
22781;DHT22;11557;50.884;4.322;2023-07-16T00:12:35;20.40;99.90
22781;DHT22;11557;50.884;4.322;2023-07-16T00:15:01;20.30;99.90
22781;DHT22;11557;50.884;4.322;2023-07-16T00:17:26;20.20;99.90
22781;DHT22;11557;50.884;4.322;2023-07-16T00:19:52;20.10;99.90
22781;DHT22;11557;50.884;4.322;2023-07-16T00:22:17;20.20;99.90
22781;DHT22;11557;50.884;4.322;2023-07-16T00:24:43;20.00;99.90
22781;DHT22;11557;50.884;4.322;2023-07-16T00:27:09;19.90;99.90
22781;DHT22;11557;50.884;4.322;2023-07-16T00:29:34;19.90;99.90
22781;DHT22;11557;50.884;4.322;2023-07-16T00:32:00;19.90;99.90
22781;DHT22;11557;50.884;4.322;2023-07-16T00:34:25;20.00;99.90
22781;DHT22;11557;50.884;4.322;2023-07-16T00:36:51;20.10;99.90
22781;DHT22;11557;50.884;4.322;2023-07-16T00:39:16;20.10;99.90
22781;DHT22;11557;50.884;4.322;2023-07-16T00:41:42;20.10;99.90
22781;DHT22;11557;50.884;4.322;2023-07-16T00:44:07;20.00;99.90
22781;DHT22;11557;50.884;4.322;2023-07-16T00:46:33;19.90;99.90
22781;DHT22;11557;50.884;4.322;2023-07-16T00:48:59;19.80;99.90
22781;DHT22;11557;50.884;4.322;2023-07-16T00:51:25;19.80;99.90
22781;DHT22;11557;50.884;4.322;2023-07-16T00:53:51;19.80;99.90
22781;DHT22;11557;50.884;4.322;2023-07-16T00:56:17;19.70;99.90
22781;DHT22;11557;50.884;4.322;2023-07-16T00:58:43;19.60;99.90
22781;DHT22;11557;50.884;4.322;2023-07-16T01:01:09;19.50;99.90
22781;DHT22;11557;50.884;4.322;2023-07-16T01:03:34;19.40;99.90
22781;DHT22;11557;50.884;4.322;2023-07-16T01:08:52;19.30;99.90
22781;DHT22;11557;50.884;4.322;2023-07-16T01:11:18;19.40;99.90
22781;DHT22;11557;50.884;4.322;2023-07-16T01:13:44;19.30;99.90
22781;DHT22;11557;50.884;4.322;2023-07-16T01:16:24;19.10;99.90
22781;DHT22;11557;50.884;4.322;2023-07-16T01:18:50;19.00;99.90
22781;DHT22;11557;50.884;4.322;2023-07-16T01:21:19;18.90;99.90
22781;DHT22;11557;50.884;4.322;2023-07-16T01:24:05;18.90;99.90
22781;DHT22;11557;50.884;4.322;2023-07-16T01:26:39;18.80;99.90
22781;DHT22;11557;50.884;4.322;2023-07-16T01:32:07;18.90;99.90
22781;DHT22;11557;50.884;4.322;2023-07-16T01:34:34;18.90;99.90
22781;DHT22;11557;50.884;4.322;2023-07-16T01:37:01;18.90;99.90
22781;DHT22;11557;50.884;4.322;2023-07-16T01:39:28;18.90;99.90
22781;DHT22;11557;50.884;4.322;2023-07-16T01:41:53;18.90;99.90
22781;DHT22;11557;50.884;4.322;2023-07-16T01:44:19;18.80;99.90
22781;DHT22;11557;50.884;4.322;2023-07-16T01:47:04;18.70;99.90
22781;DHT22;11557;50.884;4.322;2023-07-16T01:49:31;18.60;99.90
22781;DHT22;11557;50.884;4.322;2023-07-16T01:51:56;18.70;99.90
22781;DHT22;11557;50.884;4.322;2023-07-16T01:54:22;18.70;99.90
22781;DHT22;11557;50.884;4.322;2023-07-16T01:56:47;18.60;99.90
22781;DHT22;11557;50.884;4.322;2023-07-16T01:59:13;18.70;99.90
22781;DHT22;11557;50.884;4.322;2023-07-16T02:01:38;18.70;99.90
22781;DHT22;11557;50.884;4.322;2023-07-16T02:04:04;18.60;99.90
22781;DHT22;11557;50.884;4.322;2023-07-16T02:06:30;18.50;99.90
22781;DHT22;11557;50.884;4.322;2023-07-16T02:08:55;18.60;99.90
22781;DHT22;11557;50.884;4.322;2023-07-16T02:11:21;18.60;99.90
22781;DHT22;11557;50.884;4.322;2023-07-16T02:13:46;18.50;99.90
22781;DHT22;11557;50.884;4.322;2023-07-16T02:16:12;18.30;99.90
22781;DHT22;11557;50.884;4.322;2023-07-16T02:18:38;18.20;99.90
22781;DHT22;11557;50.884;4.322;2023-07-16T02:21:04;18.30;99.90
22781;DHT22;11557;50.884;4.322;2023-07-16T02:23:29;18.30;99.90
22781;DHT22;11557;50.884;4.322;2023-07-16T02:25:55;18.20;99.90
22781;DHT22;11557;50.884;4.322;2023-07-16T02:28:20;18.00;99.90
22781;DHT22;11557;50.884;4.322;2023-07-16T02:30:46;18.00;99.90
22781;DHT22;11557;50.884;4.322;2023-07-16T02:33:13;18.10;99.90
22781;DHT22;11557;50.884;4.322;2023-07-16T02:35:39;18.20;99.90
22781;DHT22;11557;50.884;4.322;2023-07-16T02:38:04;18.30;99.90
22781;DHT22;11557;50.884;4.322;2023-07-16T02:40:30;18.20;99.90
22781;DHT22;11557;50.884;4.322;2023-07-16T02:42:55;18.30;99.90
22781;DHT22;11557;50.884;4.322;2023-07-16T02:45:21;18.30;99.90
22781;DHT22;11557;50.884;4.322;2023-07-16T02:47:47;18.20;99.90
22781;DHT22;11557;50.884;4.322;2023-07-16T02:50:12;18.10;99.90
22781;DHT22;11557;50.884;4.322;2023-07-16T02:52:38;18.10;99.90
22781;DHT22;11557;50.884;4.322;2023-07-16T02:55:04;18.20;99.90
22781;DHT22;11557;50.884;4.322;2023-07-16T02:57:29;18.10;99.90
22781;DHT22;11557;50.884;4.322;2023-07-16T02:59:55;18.00;99.90
22781;DHT22;11557;50.884;4.322;2023-07-16T03:02:21;18.00;99.90
22781;DHT22;11557;50.884;4.322;2023-07-16T03:04:46;18.10;99.90
22781;DHT22;11557;50.884;4.322;2023-07-16T03:07:12;18.10;99.90
22781;DHT22;11557;50.884;4.322;2023-07-16T03:09:37;18.10;99.90
22781;DHT22;11557;50.884;4.322;2023-07-16T03:12:03;18.20;99.90
22781;DHT22;11557;50.884;4.322;2023-07-16T03:14:29;18.00;99.90
22781;DHT22;11557;50.884;4.322;2023-07-16T03:16:54;18.00;99.90
22781;DHT22;11557;50.884;4.322;2023-07-16T03:19:20;18.00;99.90
22781;DHT22;11557;50.884;4.322;2023-07-16T03:21:45;17.90;99.90
22781;DHT22;11557;50.884;4.322;2023-07-16T03:24:11;17.80;99.90
22781;DHT22;11557;50.884;4.322;2023-07-16T03:26:37;17.80;99.90
22781;DHT22;11557;50.884;4.322;2023-07-16T03:29:03;17.80;99.90
22781;DHT22;11557;50.884;4.322;2023-07-16T03:31:28;17.70;99.90
22781;DHT22;11557;50.884;4.322;2023-07-16T03:33:54;17.60;99.90
22781;DHT22;11557;50.884;4.322;2023-07-16T03:36:20;17.60;99.90
22781;DHT22;11557;50.884;4.322;2023-07-16T03:38:45;17.60;99.90
22781;DHT22;11557;50.884;4.322;2023-07-16T03:41:11;17.70;99.90
22781;DHT22;11557;50.884;4.322;2023-07-16T03:43:37;17.70;99.90
22781;DHT22;11557;50.884;4.322;2023-07-16T03:46:02;17.80;99.90
22781;DHT22;11557;50.884;4.322;2023-07-16T03:48:28;17.70;99.90
22781;DHT22;11557;50.884;4.322;2023-07-16T03:50:53;17.60;99.90
22781;DHT22;11557;50.884;4.322;2023-07-16T03:53:19;17.60;99.90
22781;DHT22;11557;50.884;4.322;2023-07-16T03:55:46;17.60;99.90
22781;DHT22;11557;50.884;4.322;2023-07-16T03:58:11;17.60;99.90
22781;DHT22;11557;50.884;4.322;2023-07-16T04:00:37;17.50;99.90
22781;DHT22;11557;50.884;4.322;2023-07-16T04:03:02;17.60;99.90
22781;DHT22;11557;50.884;4.322;2023-07-16T04:05:28;17.50;99.90
22781;DHT22;11557;50.884;4.322;2023-07-16T04:07:54;17.60;99.90
22781;DHT22;11557;50.884;4.322;2023-07-16T04:10:19;17.60;99.90
22781;DHT22;11557;50.884;4.322;2023-07-16T04:12:45;17.70;99.90
22781;DHT22;11557;50.884;4.322;2023-07-16T04:15:11;17.70;99.90
22781;DHT22;11557;50.884;4.322;2023-07-16T04:17:37;17.50;99.90
22781;DHT22;11557;50.884;4.322;2023-07-16T04:20:03;17.50;99.90
22781;DHT22;11557;50.884;4.322;2023-07-16T04:22:32;17.50;99.90
22781;DHT22;11557;50.884;4.322;2023-07-16T04:24:58;17.50;99.90
22781;DHT22;11557;50.884;4.322;2023-07-16T04:27:24;17.30;99.90
22781;DHT22;11557;50.884;4.322;2023-07-16T04:29:49;17.40;99.90
22781;DHT22;11557;50.884;4.322;2023-07-16T04:32:15;17.30;99.90
22781;DHT22;11557;50.884;4.322;2023-07-16T04:34:40;17.40;99.90
22781;DHT22;11557;50.884;4.322;2023-07-16T04:37:06;17.40;99.90
22781;DHT22;11557;50.884;4.322;2023-07-16T04:39:32;17.40;99.90
22781;DHT22;11557;50.884;4.322;2023-07-16T04:41:57;17.40;99.90
22781;DHT22;11557;50.884;4.322;2023-07-16T04:44:23;17.30;99.90
22781;DHT22;11557;50.884;4.322;2023-07-16T04:46:48;17.40;99.90
22781;DHT22;11557;50.884;4.322;2023-07-16T04:49:14;17.50;99.90
22781;DHT22;11557;50.884;4.322;2023-07-16T04:51:40;17.40;99.90
22781;DHT22;11557;50.884;4.322;2023-07-16T04:54:05;17.50;99.90
22781;DHT22;11557;50.884;4.322;2023-07-16T04:56:31;17.60;99.90
22781;DHT22;11557;50.884;4.322;2023-07-16T04:58:56;17.60;99.90
22781;DHT22;11557;50.884;4.322;2023-07-16T05:01:22;17.50;99.90
22781;DHT22;11557;50.884;4.322;2023-07-16T05:03:47;17.50;99.90
22781;DHT22;11557;50.884;4.322;2023-07-16T05:06:13;17.50;99.90
22781;DHT22;11557;50.884;4.322;2023-07-16T05:08:39;17.40;99.90
22781;DHT22;11557;50.884;4.322;2023-07-16T05:11:04;17.40;99.90
22781;DHT22;11557;50.884;4.322;2023-07-16T05:13:30;17.50;99.90
22781;DHT22;11557;50.884;4.322;2023-07-16T05:15:55;17.40;99.90
22781;DHT22;11557;50.884;4.322;2023-07-16T05:18:21;17.50;99.90
22781;DHT22;11557;50.884;4.322;2023-07-16T05:20:48;17.60;99.90
22781;DHT22;11557;50.884;4.322;2023-07-16T05:23:14;17.40;99.90
22781;DHT22;11557;50.884;4.322;2023-07-16T05:25:48;17.40;99.90
22781;DHT22;11557;50.884;4.322;2023-07-16T05:28:15;17.40;99.90
22781;DHT22;11557;50.884;4.322;2023-07-16T05:30:41;17.60;99.90
22781;DHT22;11557;50.884;4.322;2023-07-16T05:33:06;17.60;99.90
22781;DHT22;11557;50.884;4.322;2023-07-16T05:35:32;17.60;99.90
22781;DHT22;11557;50.884;4.322;2023-07-16T05:37:58;17.70;99.90
22781;DHT22;11557;50.884;4.322;2023-07-16T05:40:23;17.70;99.90
22781;DHT22;11557;50.884;4.322;2023-07-16T05:42:49;17.70;99.90
22781;DHT22;11557;50.884;4.322;2023-07-16T05:45:14;17.80;99.90
22781;DHT22;11557;50.884;4.322;2023-07-16T05:47:40;17.80;99.90
22781;DHT22;11557;50.884;4.322;2023-07-16T05:50:06;17.70;99.90
22781;DHT22;11557;50.884;4.322;2023-07-16T05:52:32;17.90;99.90
22781;DHT22;11557;50.884;4.322;2023-07-16T05:54:57;17.80;99.90
22781;DHT22;11557;50.884;4.322;2023-07-16T05:57:23;17.60;99.90
22781;DHT22;11557;50.884;4.322;2023-07-16T05:59:49;17.60;99.90
22781;DHT22;11557;50.884;4.322;2023-07-16T06:02:14;17.70;99.90
22781;DHT22;11557;50.884;4.322;2023-07-16T06:04:40;17.70;99.90
22781;DHT22;11557;50.884;4.322;2023-07-16T06:07:06;17.80;99.90
22781;DHT22;11557;50.884;4.322;2023-07-16T06:09:33;17.80;99.90
22781;DHT22;11557;50.884;4.322;2023-07-16T06:11:58;17.70;99.90
22781;DHT22;11557;50.884;4.322;2023-07-16T06:14:24;17.80;99.90
22781;DHT22;11557;50.884;4.322;2023-07-16T06:16:49;17.70;99.90
22781;DHT22;11557;50.884;4.322;2023-07-16T06:19:15;17.80;99.90
22781;DHT22;11557;50.884;4.322;2023-07-16T06:21:41;17.90;99.90
22781;DHT22;11557;50.884;4.322;2023-07-16T06:24:06;17.90;99.90
22781;DHT22;11557;50.884;4.322;2023-07-16T06:26:32;18.10;99.90
22781;DHT22;11557;50.884;4.322;2023-07-16T06:28:58;18.10;99.90
22781;DHT22;11557;50.884;4.322;2023-07-16T06:31:23;18.10;99.90
22781;DHT22;11557;50.884;4.322;2023-07-16T06:33:49;18.20;99.90
22781;DHT22;11557;50.884;4.322;2023-07-16T06:36:16;18.10;99.90
22781;DHT22;11557;50.884;4.322;2023-07-16T06:38:41;18.10;99.90
22781;DHT22;11557;50.884;4.322;2023-07-16T06:41:07;18.10;99.90
22781;DHT22;11557;50.884;4.322;2023-07-16T06:43:33;18.10;99.90
22781;DHT22;11557;50.884;4.322;2023-07-16T06:45:58;18.10;99.90
22781;DHT22;11557;50.884;4.322;2023-07-16T06:48:24;18.10;99.90
22781;DHT22;11557;50.884;4.322;2023-07-16T06:50:50;18.20;99.90
22781;DHT22;11557;50.884;4.322;2023-07-16T06:53:16;18.50;99.90
22781;DHT22;11557;50.884;4.322;2023-07-16T06:55:42;19.90;99.90
22781;DHT22;11557;50.884;4.322;2023-07-16T06:58:10;21.50;99.90
22781;DHT22;11557;50.884;4.322;2023-07-16T07:00:36;22.50;99.90
22781;DHT22;11557;50.884;4.322;2023-07-16T07:03:02;23.70;99.90
22781;DHT22;11557;50.884;4.322;2023-07-16T07:05:28;25.30;99.90
22781;DHT22;11557;50.884;4.322;2023-07-16T07:07:53;26.60;99.90
22781;DHT22;11557;50.884;4.322;2023-07-16T07:10:20;27.50;99.90
22781;DHT22;11557;50.884;4.322;2023-07-16T07:12:45;27.90;99.90
22781;DHT22;11557;50.884;4.322;2023-07-16T07:15:11;28.90;99.90
22781;DHT22;11557;50.884;4.322;2023-07-16T07:17:37;28.70;99.90
22781;DHT22;11557;50.884;4.322;2023-07-16T07:20:03;28.90;99.90
22781;DHT22;11557;50.884;4.322;2023-07-16T07:22:29;29.40;99.90
22781;DHT22;11557;50.884;4.322;2023-07-16T07:24:55;30.20;99.90
22781;DHT22;11557;50.884;4.322;2023-07-16T07:27:20;30.10;99.90
22781;DHT22;11557;50.884;4.322;2023-07-16T07:29:46;30.40;99.90
22781;DHT22;11557;50.884;4.322;2023-07-16T07:32:13;30.20;99.90
22781;DHT22;11557;50.884;4.322;2023-07-16T07:34:39;29.90;99.90
22781;DHT22;11557;50.884;4.322;2023-07-16T07:37:05;29.20;99.90
22781;DHT22;11557;50.884;4.322;2023-07-16T07:39:30;28.70;99.90
22781;DHT22;11557;50.884;4.322;2023-07-16T07:41:56;27.60;99.90
22781;DHT22;11557;50.884;4.322;2023-07-16T07:44:22;27.70;99.90
22781;DHT22;11557;50.884;4.322;2023-07-16T07:46:47;28.00;99.90
22781;DHT22;11557;50.884;4.322;2023-07-16T07:49:13;27.60;99.90
22781;DHT22;11557;50.884;4.322;2023-07-16T07:51:39;27.90;99.90
22781;DHT22;11557;50.884;4.322;2023-07-16T07:54:04;28.00;99.90
22781;DHT22;11557;50.884;4.322;2023-07-16T07:56:30;29.10;99.90
22781;DHT22;11557;50.884;4.322;2023-07-16T07:58:56;29.40;99.90
22781;DHT22;11557;50.884;4.322;2023-07-16T08:01:22;29.10;99.90
22781;DHT22;11557;50.884;4.322;2023-07-16T08:03:47;28.20;99.90
22781;DHT22;11557;50.884;4.322;2023-07-16T08:06:13;27.30;99.90
22781;DHT22;11557;50.884;4.322;2023-07-16T08:08:38;27.00;99.90
22781;DHT22;11557;50.884;4.322;2023-07-16T08:11:04;27.80;99.90
22781;DHT22;11557;50.884;4.322;2023-07-16T08:13:30;27.30;99.90
22781;DHT22;11557;50.884;4.322;2023-07-16T08:15:55;27.60;99.90
22781;DHT22;11557;50.884;4.322;2023-07-16T08:18:21;28.00;99.90
22781;DHT22;11557;50.884;4.322;2023-07-16T08:20:47;29.30;99.90
22781;DHT22;11557;50.884;4.322;2023-07-16T08:23:12;29.10;99.90
22781;DHT22;11557;50.884;4.322;2023-07-16T08:25:38;29.10;99.90
22781;DHT22;11557;50.884;4.322;2023-07-16T08:28:04;28.90;99.90
22781;DHT22;11557;50.884;4.322;2023-07-16T08:30:31;28.20;99.90
22781;DHT22;11557;50.884;4.322;2023-07-16T08:32:57;28.70;99.90
22781;DHT22;11557;50.884;4.322;2023-07-16T08:35:23;28.70;99.90
22781;DHT22;11557;50.884;4.322;2023-07-16T08:37:48;28.60;99.90
22781;DHT22;11557;50.884;4.322;2023-07-16T08:40:15;26.80;99.90
22781;DHT22;11557;50.884;4.322;2023-07-16T08:42:44;26.10;99.90
22781;DHT22;11557;50.884;4.322;2023-07-16T08:45:11;25.80;99.90
22781;DHT22;11557;50.884;4.322;2023-07-16T08:47:37;25.60;99.90
22781;DHT22;11557;50.884;4.322;2023-07-16T08:50:03;25.90;99.90
22781;DHT22;11557;50.884;4.322;2023-07-16T08:52:30;26.30;99.90
22781;DHT22;11557;50.884;4.322;2023-07-16T08:54:56;25.30;99.90
22781;DHT22;11557;50.884;4.322;2023-07-16T08:57:23;25.00;99.90
22781;DHT22;11557;50.884;4.322;2023-07-16T08:59:49;24.40;99.90
22781;DHT22;11557;50.884;4.322;2023-07-16T09:02:19;24.00;99.90
22781;DHT22;11557;50.884;4.322;2023-07-16T09:04:48;23.50;99.90
22781;DHT22;11557;50.884;4.322;2023-07-16T09:07:14;23.30;99.90
22781;DHT22;11557;50.884;4.322;2023-07-16T09:09:40;23.30;99.90
22781;DHT22;11557;50.884;4.322;2023-07-16T09:12:06;23.50;99.90
22781;DHT22;11557;50.884;4.322;2023-07-16T09:14:32;24.20;99.90
22781;DHT22;11557;50.884;4.322;2023-07-16T09:16:57;24.50;99.90
22781;DHT22;11557;50.884;4.322;2023-07-16T09:19:25;24.60;99.90
22781;DHT22;11557;50.884;4.322;2023-07-16T09:21:51;24.50;99.90
22781;DHT22;11557;50.884;4.322;2023-07-16T09:24:18;23.80;99.90
22781;DHT22;11557;50.884;4.322;2023-07-16T09:26:52;23.50;99.90
22781;DHT22;11557;50.884;4.322;2023-07-16T09:29:19;23.50;99.90
22781;DHT22;11557;50.884;4.322;2023-07-16T09:34:18;22.80;99.90
22781;DHT22;11557;50.884;4.322;2023-07-16T09:36:43;22.50;99.90
22781;DHT22;11557;50.884;4.322;2023-07-16T09:39:12;22.30;99.90
22781;DHT22;11557;50.884;4.322;2023-07-16T09:41:38;22.10;99.90
22781;DHT22;11557;50.884;4.322;2023-07-16T09:44:06;21.80;99.90
22781;DHT22;11557;50.884;4.322;2023-07-16T09:46:31;21.70;99.90
22781;DHT22;11557;50.884;4.322;2023-07-16T09:48:57;21.60;99.90
22781;DHT22;11557;50.884;4.322;2023-07-16T09:51:23;21.60;99.90
22781;DHT22;11557;50.884;4.322;2023-07-16T09:53:50;21.60;99.90
22781;DHT22;11557;50.884;4.322;2023-07-16T09:56:18;21.60;99.90
22781;DHT22;11557;50.884;4.322;2023-07-16T09:58:45;21.70;99.90
22781;DHT22;11557;50.884;4.322;2023-07-16T10:01:11;21.40;99.90
22781;DHT22;11557;50.884;4.322;2023-07-16T10:03:37;21.20;99.90
22781;DHT22;11557;50.884;4.322;2023-07-16T10:06:13;21.10;99.90
22781;DHT22;11557;50.884;4.322;2023-07-16T10:08:38;21.10;99.90
22781;DHT22;11557;50.884;4.322;2023-07-16T10:11:14;21.20;99.90
22781;DHT22;11557;50.884;4.322;2023-07-16T10:13:40;21.20;99.90
22781;DHT22;11557;50.884;4.322;2023-07-16T10:16:06;21.40;99.90
22781;DHT22;11557;50.884;4.322;2023-07-16T10:18:35;21.50;99.90
22781;DHT22;11557;50.884;4.322;2023-07-16T10:21:05;21.40;99.90
22781;DHT22;11557;50.884;4.322;2023-07-16T10:23:43;21.40;99.90
22781;DHT22;11557;50.884;4.322;2023-07-16T10:26:11;21.40;99.90
22781;DHT22;11557;50.884;4.322;2023-07-16T10:28:38;21.30;99.90
22781;DHT22;11557;50.884;4.322;2023-07-16T10:31:03;21.20;99.90
22781;DHT22;11557;50.884;4.322;2023-07-16T10:33:29;21.30;99.90
22781;DHT22;11557;50.884;4.322;2023-07-16T10:35:57;21.60;99.90
22781;DHT22;11557;50.884;4.322;2023-07-16T10:38:26;21.90;99.90
22781;DHT22;11557;50.884;4.322;2023-07-16T10:40:52;22.10;99.90
22781;DHT22;11557;50.884;4.322;2023-07-16T10:43:18;22.30;99.90
22781;DHT22;11557;50.884;4.322;2023-07-16T10:45:43;22.30;99.90
22781;DHT22;11557;50.884;4.322;2023-07-16T10:48:12;22.30;99.90
22781;DHT22;11557;50.884;4.322;2023-07-16T10:50:38;22.20;99.90
22781;DHT22;11557;50.884;4.322;2023-07-16T10:53:04;22.00;99.90
22781;DHT22;11557;50.884;4.322;2023-07-16T10:55:30;21.80;99.90
22781;DHT22;11557;50.884;4.322;2023-07-16T10:57:58;21.80;99.90
22781;DHT22;11557;50.884;4.322;2023-07-16T11:00:23;21.50;99.90
22781;DHT22;11557;50.884;4.322;2023-07-16T11:02:50;21.40;99.90
22781;DHT22;11557;50.884;4.322;2023-07-16T11:05:17;21.50;99.90
22781;DHT22;11557;50.884;4.322;2023-07-16T11:07:48;21.70;99.90
22781;DHT22;11557;50.884;4.322;2023-07-16T11:10:17;21.70;99.90
22781;DHT22;11557;50.884;4.322;2023-07-16T11:12:43;21.70;99.90
22781;DHT22;11557;50.884;4.322;2023-07-16T11:15:10;22.00;99.90
22781;DHT22;11557;50.884;4.322;2023-07-16T11:17:38;21.90;99.90
22781;DHT22;11557;50.884;4.322;2023-07-16T11:20:07;21.70;99.90
22781;DHT22;11557;50.884;4.322;2023-07-16T11:22:37;21.90;99.90
22781;DHT22;11557;50.884;4.322;2023-07-16T11:25:04;22.10;99.90
22781;DHT22;11557;50.884;4.322;2023-07-16T11:27:33;22.30;99.90
22781;DHT22;11557;50.884;4.322;2023-07-16T11:30:00;22.60;99.90
22781;DHT22;11557;50.884;4.322;2023-07-16T11:32:30;22.60;99.90
22781;DHT22;11557;50.884;4.322;2023-07-16T11:34:57;22.70;99.90
22781;DHT22;11557;50.884;4.322;2023-07-16T11:37:27;23.20;99.90
22781;DHT22;11557;50.884;4.322;2023-07-16T11:39:56;23.70;99.90
22781;DHT22;11557;50.884;4.322;2023-07-16T11:42:30;24.00;99.90
22781;DHT22;11557;50.884;4.322;2023-07-16T11:44:57;24.20;99.90
22781;DHT22;11557;50.884;4.322;2023-07-16T11:47:23;24.30;99.90
22781;DHT22;11557;50.884;4.322;2023-07-16T11:49:49;24.50;99.90
22781;DHT22;11557;50.884;4.322;2023-07-16T11:52:20;24.60;99.90
22781;DHT22;11557;50.884;4.322;2023-07-16T11:54:45;24.70;99.90
22781;DHT22;11557;50.884;4.322;2023-07-16T11:57:11;24.90;99.90
22781;DHT22;11557;50.884;4.322;2023-07-16T11:59:37;24.90;99.90
22781;DHT22;11557;50.884;4.322;2023-07-16T12:02:02;25.00;99.90
22781;DHT22;11557;50.884;4.322;2023-07-16T12:04:28;25.00;99.90
22781;DHT22;11557;50.884;4.322;2023-07-16T12:06:54;24.80;99.90
22781;DHT22;11557;50.884;4.322;2023-07-16T12:09:20;24.50;99.90
22781;DHT22;11557;50.884;4.322;2023-07-16T12:11:45;25.40;99.90
22781;DHT22;11557;50.884;4.322;2023-07-16T12:14:11;24.30;99.90
22781;DHT22;11557;50.884;4.322;2023-07-16T12:16:38;24.20;99.90
22781;DHT22;11557;50.884;4.322;2023-07-16T12:19:05;24.20;99.90
22781;DHT22;11557;50.884;4.322;2023-07-16T12:21:31;24.10;99.90
22781;DHT22;11557;50.884;4.322;2023-07-16T12:23:57;23.70;99.90
22781;DHT22;11557;50.884;4.322;2023-07-16T12:26:23;23.30;99.90
22781;DHT22;11557;50.884;4.322;2023-07-16T12:28:49;23.40;99.90
22781;DHT22;11557;50.884;4.322;2023-07-16T12:31:15;23.10;99.90
22781;DHT22;11557;50.884;4.322;2023-07-16T12:33:42;22.80;99.90
22781;DHT22;11557;50.884;4.322;2023-07-16T12:36:08;22.80;99.90
22781;DHT22;11557;50.884;4.322;2023-07-16T12:38:33;22.30;99.90
22781;DHT22;11557;50.884;4.322;2023-07-16T12:40:59;22.40;99.90
22781;DHT22;11557;50.884;4.322;2023-07-16T12:43:25;22.50;99.90
22781;DHT22;11557;50.884;4.322;2023-07-16T12:45:50;22.70;99.90
22781;DHT22;11557;50.884;4.322;2023-07-16T12:48:16;22.90;99.90
22781;DHT22;11557;50.884;4.322;2023-07-16T12:50:42;23.00;99.90
22781;DHT22;11557;50.884;4.322;2023-07-16T12:53:08;23.10;99.90
22781;DHT22;11557;50.884;4.322;2023-07-16T12:55:34;23.30;99.90
22781;DHT22;11557;50.884;4.322;2023-07-16T12:57:59;23.50;99.90
22781;DHT22;11557;50.884;4.322;2023-07-16T13:00:25;23.70;99.90
22781;DHT22;11557;50.884;4.322;2023-07-16T13:02:51;23.80;99.90
22781;DHT22;11557;50.884;4.322;2023-07-16T13:05:17;23.80;99.90
22781;DHT22;11557;50.884;4.322;2023-07-16T13:07:42;23.70;99.90
22781;DHT22;11557;50.884;4.322;2023-07-16T13:10:08;23.70;99.90
22781;DHT22;11557;50.884;4.322;2023-07-16T13:12:34;24.00;99.90
22781;DHT22;11557;50.884;4.322;2023-07-16T13:15:00;23.90;99.90
22781;DHT22;11557;50.884;4.322;2023-07-16T13:17:26;23.90;99.90
22781;DHT22;11557;50.884;4.322;2023-07-16T13:19:52;23.80;99.90
22781;DHT22;11557;50.884;4.322;2023-07-16T13:22:17;23.80;99.90
22781;DHT22;11557;50.884;4.322;2023-07-16T13:24:43;23.70;99.90
22781;DHT22;11557;50.884;4.322;2023-07-16T13:27:18;23.70;99.90
22781;DHT22;11557;50.884;4.322;2023-07-16T13:29:44;23.60;99.90
22781;DHT22;11557;50.884;4.322;2023-07-16T13:32:10;23.40;99.90
22781;DHT22;11557;50.884;4.322;2023-07-16T13:34:36;23.20;99.90
22781;DHT22;11557;50.884;4.322;2023-07-16T13:37:01;23.00;99.90
22781;DHT22;11557;50.884;4.322;2023-07-16T13:39:27;22.80;99.90
22781;DHT22;11557;50.884;4.322;2023-07-16T13:41:52;22.90;99.90
22781;DHT22;11557;50.884;4.322;2023-07-16T13:44:18;22.90;99.90
22781;DHT22;11557;50.884;4.322;2023-07-16T13:46:44;23.00;99.90
22781;DHT22;11557;50.884;4.322;2023-07-16T13:49:09;22.80;99.90
22781;DHT22;11557;50.884;4.322;2023-07-16T13:51:35;22.80;99.90
22781;DHT22;11557;50.884;4.322;2023-07-16T13:54:01;23.00;99.90
22781;DHT22;11557;50.884;4.322;2023-07-16T13:56:26;23.10;99.90
22781;DHT22;11557;50.884;4.322;2023-07-16T13:58:52;23.10;99.90
22781;DHT22;11557;50.884;4.322;2023-07-16T14:01:19;23.00;99.90
22781;DHT22;11557;50.884;4.322;2023-07-16T14:03:45;23.20;99.90
22781;DHT22;11557;50.884;4.322;2023-07-16T14:06:10;23.30;99.90
22781;DHT22;11557;50.884;4.322;2023-07-16T14:08:36;23.50;99.90
22781;DHT22;11557;50.884;4.322;2023-07-16T14:11:02;24.00;99.90
22781;DHT22;11557;50.884;4.322;2023-07-16T14:13:28;24.10;99.90
22781;DHT22;11557;50.884;4.322;2023-07-16T14:15:54;24.30;99.90
22781;DHT22;11557;50.884;4.322;2023-07-16T14:18:20;24.20;99.90
22781;DHT22;11557;50.884;4.322;2023-07-16T14:20:45;24.10;99.90
22781;DHT22;11557;50.884;4.322;2023-07-16T14:23:12;24.10;99.90
22781;DHT22;11557;50.884;4.322;2023-07-16T14:25:38;24.10;99.90
22781;DHT22;11557;50.884;4.322;2023-07-16T14:28:04;24.00;99.90
22781;DHT22;11557;50.884;4.322;2023-07-16T14:30:30;23.70;99.90
22781;DHT22;11557;50.884;4.322;2023-07-16T14:32:56;23.70;99.90
22781;DHT22;11557;50.884;4.322;2023-07-16T14:35:22;23.70;99.90
22781;DHT22;11557;50.884;4.322;2023-07-16T14:37:48;23.70;99.90
22781;DHT22;11557;50.884;4.322;2023-07-16T14:40:13;23.70;99.90
22781;DHT22;11557;50.884;4.322;2023-07-16T14:42:39;23.80;99.90
22781;DHT22;11557;50.884;4.322;2023-07-16T14:45:06;23.80;99.90
22781;DHT22;11557;50.884;4.322;2023-07-16T14:47:33;24.00;99.90
22781;DHT22;11557;50.884;4.322;2023-07-16T14:49:59;24.10;99.90
22781;DHT22;11557;50.884;4.322;2023-07-16T14:52:25;24.20;99.90
22781;DHT22;11557;50.884;4.322;2023-07-16T14:54:50;24.30;99.90
22781;DHT22;11557;50.884;4.322;2023-07-16T14:57:16;24.40;99.90
22781;DHT22;11557;50.884;4.322;2023-07-16T14:59:43;24.20;99.90
22781;DHT22;11557;50.884;4.322;2023-07-16T15:02:09;24.20;99.90
22781;DHT22;11557;50.884;4.322;2023-07-16T15:04:35;24.20;99.90
22781;DHT22;11557;50.884;4.322;2023-07-16T15:07:00;24.30;99.90
22781;DHT22;11557;50.884;4.322;2023-07-16T15:09:26;24.20;99.90
22781;DHT22;11557;50.884;4.322;2023-07-16T15:11:52;24.30;99.90
22781;DHT22;11557;50.884;4.322;2023-07-16T15:14:19;24.40;99.90
22781;DHT22;11557;50.884;4.322;2023-07-16T15:16:45;24.50;99.90
22781;DHT22;11557;50.884;4.322;2023-07-16T15:19:10;24.70;99.90
22781;DHT22;11557;50.884;4.322;2023-07-16T15:21:37;24.90;99.90
22781;DHT22;11557;50.884;4.322;2023-07-16T15:24:04;24.90;99.90
22781;DHT22;11557;50.884;4.322;2023-07-16T15:26:30;25.00;99.90
22781;DHT22;11557;50.884;4.322;2023-07-16T15:28:57;25.20;99.90
22781;DHT22;11557;50.884;4.322;2023-07-16T15:31:24;25.30;99.90